Time;durP1;ratioP1;P1;durP2;ratioP2;P2;SDS_P1;SDS_P2;PMS_P1;PMS_P2;Temp;Humidity;BMP_temperature;BMP_pressure;BME280_temperature;BME280_humidity;BME280_pressure;Samples;Min_cycle;Max_cycle;Signal;HPM_P1;HPM_P2
2022/01/25 00:26:30;;;;;;;10.98;6.78;;;;;;;-4.55;69.78;101708.88;1735519;81;21535;-77
2022/01/25 00:31:39;;;;;;;8.25;4.95;;;;;;;-4.52;69.51;101699.97;1735513;82;21388;-77
2022/01/25 00:34:05;;;;;;;9.25;5.85;;;;;;;-4.59;69.32;101698.98;1735756;82;21511;-76
2022/01/25 00:36:33;;;;;;;9.88;5.37;;;;;;;-4.65;69.51;101698.86;1735373;81;21097;-78
2022/01/25 00:38:59;;;;;;;11.60;5.80;;;;;;;-4.63;69.52;101703.59;1749232;80;20951;-78
2022/01/25 00:41:27;;;;;;;6.75;4.85;;;;;;;-4.61;69.30;101693.83;1750707;82;20986;-78
2022/01/25 00:43:54;;;;;;;9.20;5.97;;;;;;;-4.60;69.18;101700.69;1750832;82;20967;-78
2022/01/25 00:46:22;;;;;;;9.08;5.08;;;;;;;-4.61;69.10;101696.81;1751225;82;21365;-78
2022/01/25 00:48:53;;;;;;;11.12;5.70;;;;;;;-4.64;68.93;101692.50;1751393;81;21661;-77
2022/01/25 00:51:57;;;;;;;7.15;4.75;;;;;;;-4.64;68.93;101696.34;1750512;80;21492;-78
2022/01/25 00:53:59;;;;;;;8.75;4.95;;;;;;;-4.63;69.08;101683.12;1746875;80;20987;-79
2022/01/25 00:56:34;;;;;;;8.20;5.28;;;;;;;-4.62;68.81;101690.84;1746419;82;21168;-78
2022/01/25 00:59:07;;;;;;;10.48;4.97;;;;;;;-4.63;68.57;101689.09;1720823;83;20908;-79
2022/01/25 01:01:35;;;;;;;10.85;5.08;;;;;;;-4.64;68.38;101682.69;1721150;83;21919;-77
2022/01/25 01:04:03;;;;;;;9.95;4.83;;;;;;;-4.65;68.28;101691.18;1720919;83;21002;-79
2022/01/25 01:06:31;;;;;;;9.35;5.50;;;;;;;-4.71;68.25;101689.77;1721157;83;21417;-78
2022/01/25 01:08:58;;;;;;;9.00;4.45;;;;;;;-4.72;68.37;101686.36;1721129;82;20931;-78
2022/01/25 01:11:37;;;;;;;9.10;4.55;;;;;;;-4.72;68.10;101690.20;1721262;82;20983;-77
2022/01/25 01:14:23;;;;;;;8.15;4.65;;;;;;;-4.80;68.20;101681.52;1721250;82;21161;-78
2022/01/25 01:16:59;;;;;;;7.03;4.08;;;;;;;-4.81;68.41;101685.75;1721234;83;20927;-79
2022/01/25 01:30:39;;;;;;;9.13;4.87;;;;;;;-4.93;68.29;101685.94;1721227;82;20911;-78
2022/01/25 01:35:41;;;;;;;8.15;5.35;;;;;;;-4.85;68.19;101689.08;1721247;83;21472;-78
2022/01/25 01:41:12;;;;;;;9.98;4.85;;;;;;;-4.84;67.85;101683.14;1721130;82;21790;-79
2022/01/25 01:43:29;;;;;;;9.40;4.35;;;;;;;-4.90;67.64;101679.17;1721106;82;21425;-79
2022/01/25 01:48:34;;;;;;;7.45;4.70;;;;;;;-4.90;67.31;101686.85;1721509;83;20973;-80
2022/01/25 01:50:50;;;;;;;8.80;5.08;;;;;;;-4.95;67.29;101691.44;1691771;84;20900;-80
2022/01/25 01:53:17;;;;;;;8.13;5.30;;;;;;;-4.97;67.50;101699.49;1695973;84;21559;-78
2022/01/25 01:55:44;;;;;;;9.28;4.92;;;;;;;-5.01;67.77;101698.13;1695474;84;20983;-79
2022/01/25 01:58:11;;;;;;;10.23;5.40;;;;;;;-5.00;67.78;101695.19;1695535;84;20881;-78
2022/01/25 02:00:42;;;;;;;9.05;5.12;;;;;;;-5.00;67.99;101697.31;1695449;83;21387;-78
2022/01/25 02:03:09;;;;;;;9.58;5.47;;;;;;;-4.98;68.08;101693.91;1695496;84;20873;-80
2022/01/25 02:05:36;;;;;;;6.40;4.35;;;;;;;-4.95;68.07;101697.41;1695640;84;21129;-79
2022/01/25 02:08:03;;;;;;;9.73;5.65;;;;;;;-4.93;67.95;101691.06;1695457;84;20980;-78
2022/01/25 02:10:31;;;;;;;7.25;4.28;;;;;;;-4.93;68.00;101693.19;1695430;84;21382;-78
2022/01/25 02:12:58;;;;;;;8.98;4.90;;;;;;;-4.92;67.76;101700.45;1695311;84;20920;-80
2022/01/25 02:15:26;;;;;;;10.08;5.78;;;;;;;-4.92;67.54;101706.41;1695612;83;21512;-81
2022/01/25 02:23:22;;;;;;;7.25;4.22;;;;;;;-5.06;67.10;101704.85;1703451;84;21537;-79
2022/01/25 02:25:53;;;;;;;11.33;5.75;;;;;;;-5.10;67.47;101706.89;1703482;84;21405;-80
2022/01/25 02:28:20;;;;;;;10.28;4.97;;;;;;;-5.07;67.58;101702.25;1703876;84;20911;-77
2022/01/25 02:30:47;;;;;;;10.78;5.10;;;;;;;-5.02;67.77;101700.68;1703529;84;21132;-80
2022/01/25 02:33:14;;;;;;;9.63;5.70;;;;;;;-4.94;67.76;101701.69;1703748;84;20984;-79
2022/01/25 02:35:42;;;;;;;9.90;5.30;;;;;;;-4.89;67.58;101705.61;1703483;84;20956;-79
2022/01/25 02:38:09;;;;;;;10.32;5.22;;;;;;;-4.89;67.51;101699.22;1703748;82;21039;-80
2022/01/25 02:40:36;;;;;;;10.25;5.03;;;;;;;-4.88;67.58;101697.98;1686473;84;20947;-77
2022/01/25 02:43:02;;;;;;;11.25;6.25;;;;;;;-4.89;67.39;101701.77;1703562;84;21804;-78
2022/01/25 02:45:36;;;;;;;10.55;6.37;;;;;;;-4.90;67.45;101703.90;1703467;84;20979;-80
2022/01/25 02:50:43;;;;;;;;;;;;;;;-4.98;67.29;101702.86;1706142;84;20979;-80
2022/01/25 02:53:10;;;;;;;8.73;4.70;;;;;;;-5.08;67.55;101702.67;1703632;84;20117;-81
2022/01/25 02:55:39;;;;;;;11.40;5.50;;;;;;;-5.15;67.73;101702.09;1703602;84;21498;-80
2022/01/25 02:58:07;;;;;;;11.70;5.75;;;;;;;-5.21;67.91;101700.68;1703460;84;20900;-78
2022/01/25 03:00:34;;;;;;;7.97;5.22;;;;;;;-5.25;68.22;101701.44;1703687;84;20995;-78
2022/01/25 03:03:02;;;;;;;9.95;6.70;;;;;;;-5.24;68.28;101699.34;1703397;84;20955;-78
2022/01/25 03:05:29;;;;;;;9.20;6.30;;;;;;;-5.24;68.49;101695.09;1703959;84;20868;-78
2022/01/25 03:07:58;;;;;;;8.88;4.30;;;;;;;-5.15;68.88;101694.43;1703441;84;20904;-78
2022/01/25 03:10:34;;;;;;;12.25;6.08;;;;;;;-5.03;68.70;101694.67;1703618;84;20995;-77
2022/01/25 03:13:01;;;;;;;10.68;6.08;;;;;;;-4.98;68.60;101695.19;1703401;83;20872;-79
2022/01/25 03:15:54;;;;;;;7.37;5.53;;;;;;;-4.94;68.56;101689.31;1703517;84;20888;-80
2022/01/25 03:18:07;;;;;;;10.05;5.85;;;;;;;-4.89;68.34;101688.98;1700448;84;20955;-79
2022/01/25 03:20:48;;;;;;;9.68;5.60;;;;;;;-4.89;68.00;101683.87;1702580;84;21172;-77
2022/01/25 03:23:17;;;;;;;8.35;5.42;;;;;;;-4.92;68.01;101699.17;1702134;84;20991;-78
2022/01/25 03:25:36;;;;;;;8.70;5.40;;;;;;;-4.92;67.89;101697.46;1703119;84;20927;-80
2022/01/25 03:28:03;;;;;;;11.40;5.78;;;;;;;-4.93;67.82;101702.14;1703447;84;20987;-79
2022/01/25 03:30:30;;;;;;;8.78;5.67;;;;;;;-4.92;67.67;101695.33;1703555;84;20944;-79
2022/01/25 03:32:58;;;;;;;7.47;4.72;;;;;;;-4.94;67.39;101700.83;1703508;84;21146;-79
2022/01/25 03:35:25;;;;;;;7.87;4.87;;;;;;;-4.96;67.04;101703.77;1703325;84;21003;-79
2022/01/25 03:37:52;;;;;;;10.03;5.20;;;;;;;-4.99;66.91;101705.84;1705874;81;20920;-79
2022/01/25 03:40:20;;;;;;;8.55;5.12;;;;;;;-5.04;66.74;101703.61;1789010;79;20899;-80
2022/01/25 03:42:48;;;;;;;7.08;4.92;;;;;;;-5.03;66.85;101698.94;1789161;80;20970;-78
2022/01/25 03:45:20;;;;;;;8.65;5.10;;;;;;;-5.00;66.62;101699.88;1789108;80;21150;-79
2022/01/25 03:50:15;;;;;;;5.83;4.03;;;;;;;-5.02;66.14;101696.84;1763736;80;20978;-78
2022/01/25 03:52:42;;;;;;;8.18;4.85;;;;;;;-5.10;65.91;101699.22;1789573;79;21822;-77
2022/01/25 03:55:09;;;;;;;7.45;4.47;;;;;;;-5.19;65.92;101701.58;1789188;80;20879;-79
2022/01/25 03:57:36;;;;;;;7.28;4.37;;;;;;;-5.30;66.17;101696.64;1788949;80;21173;-80
2022/01/25 04:00:04;;;;;;;6.92;3.65;;;;;;;-5.31;66.34;101694.52;1788911;80;20998;-79
2022/01/25 04:02:35;;;;;;;12.58;4.30;;;;;;;-5.32;66.05;101704.27;1788319;80;20931;-78
2022/01/25 04:05:02;;;;;;;7.25;4.08;;;;;;;-5.42;66.13;101699.38;1789643;79;20931;-79
2022/01/25 04:07:43;;;;;;;5.72;4.28;;;;;;;-5.43;66.42;101704.44;1789267;79;21310;-78
2022/01/25 04:09:58;;;;;;;8.48;4.83;;;;;;;-5.42;66.48;101703.20;1787603;79;21129;-79
2022/01/25 04:12:25;;;;;;;7.40;5.05;;;;;;;-5.38;66.36;101707.10;1789276;79;20860;-76
2022/01/25 04:14:54;;;;;;;7.28;5.10;;;;;;;-5.39;66.37;101699.00;1789704;80;20923;-77
2022/01/25 04:17:22;;;;;;;7.33;4.45;;;;;;;-5.39;66.37;101706.66;1789371;80;21461;-78
2022/01/25 04:20:10;;;;;;;6.25;3.67;;;;;;;-5.37;66.36;101717.37;1789041;79;20876;-77
2022/01/25 04:25:13;;;;;;;11.05;5.55;;;;;;;-5.46;66.08;101719.72;1789297;79;20891;-78
2022/01/25 04:27:35;;;;;;;6.78;4.17;;;;;;;-5.48;66.39;101723.50;1788012;80;20975;-79
2022/01/25 04:30:03;;;;;;;9.85;4.75;;;;;;;-5.43;66.43;101714.24;1789342;79;20884;-79
2022/01/25 04:32:47;;;;;;;8.35;4.83;;;;;;;-5.41;66.40;101722.81;1789185;80;20923;-79
2022/01/25 04:35:27;;;;;;;6.50;4.85;;;;;;;-5.39;66.13;101729.25;1788685;79;21158;-79
2022/01/25 04:49:00;;;;;;;8.35;5.65;;;;;;;-5.25;66.40;101726.61;1789718;79;21152;-79
2022/01/25 04:56:08;;;;;;;7.72;5.17;;;;;;;-5.18;66.42;101723.75;1683401;84;20873;-77
2022/01/25 04:58:38;;;;;;;8.68;5.20;;;;;;;-5.14;66.39;101722.98;1704516;83;21566;-80
2022/01/25 05:01:03;;;;;;;8.88;5.78;;;;;;;-5.11;66.19;101725.63;1704513;84;20900;-79
2022/01/25 05:03:52;;;;;;;8.75;4.60;;;;;;;-5.12;66.25;101720.48;1705920;84;20928;-80
2022/01/25 05:06:11;;;;;;;16.95;5.50;;;;;;;-5.14;66.16;101723.41;1702751;83;20995;-78
2022/01/25 05:08:39;;;;;;;8.93;5.53;;;;;;;-5.18;66.26;101725.45;1705180;83;20952;-79
2022/01/25 05:11:20;;;;;;;8.83;5.95;;;;;;;-5.18;66.53;101723.75;1705127;84;21171;-80
2022/01/25 05:16:30;;;;;;;8.45;5.70;;;;;;;-5.14;66.63;101731.08;1657206;86;20903;-79
2022/01/25 05:22:06;;;;;;;11.15;5.65;;;;;;;-5.12;66.61;101723.03;1657058;86;20967;-78
2022/01/25 05:24:38;;;;;;;8.35;5.60;;;;;;;-5.09;66.80;101726.53;1658067;86;21160;-84
2022/01/25 05:27:09;;;;;;;8.05;5.50;;;;;;;-5.04;66.63;101728.77;1657864;86;20916;-82
2022/01/25 05:29:37;;;;;;;14.53;6.28;;;;;;;-5.02;66.84;101733.50;1658176;86;20953;-85
2022/01/25 05:32:05;;;;;;;9.70;5.00;;;;;;;-5.01;66.89;101730.52;1665674;84;20984;-85
2022/01/25 05:34:33;;;;;;;10.32;5.33;;;;;;;-4.98;66.91;101733.55;1692501;84;21020;-84
2022/01/25 05:37:00;;;;;;;7.78;5.12;;;;;;;-4.96;66.69;101734.45;1692574;84;21871;-86
2022/01/25 05:39:31;;;;;;;8.35;5.47;;;;;;;-5.02;66.48;101733.92;1692471;84;20940;-85
2022/01/25 05:42:15;;;;;;;9.00;5.35;;;;;;;-5.09;66.45;101729.09;1692504;84;21390;-88
2022/01/25 05:44:38;;;;;;;6.78;4.42;;;;;;;-5.12;66.46;101727.73;1656965;85;21026;-87
2022/01/25 05:49:25;;;;;;;9.65;5.85;;;;;;;-5.32;66.61;101729.83;1656330;86;21982;-84
2022/01/25 05:51:53;;;;;;;8.25;4.65;;;;;;;-5.35;67.00;101729.77;1672724;83;20904;-83
2022/01/25 05:54:20;;;;;;;6.85;4.72;;;;;;;-5.30;67.04;101728.17;1712744;82;20963;-79
2022/01/25 05:56:49;;;;;;;9.95;5.72;;;;;;;-5.29;67.01;101720.97;1712770;82;20889;-81
2022/01/25 05:59:15;;;;;;;8.28;5.42;;;;;;;-5.26;67.11;101722.73;1713032;82;20928;-82
2022/01/25 06:01:45;;;;;;;8.40;5.12;;;;;;;-5.21;66.93;101723.27;1712832;83;21109;-82
2022/01/25 06:04:11;;;;;;;9.35;5.25;;;;;;;-5.17;66.86;101720.80;1712400;82;20943;-81
2022/01/25 06:06:38;;;;;;;11.20;5.47;;;;;;;-5.15;66.87;101721.70;1712446;82;20940;-81
2022/01/25 06:09:05;;;;;;;8.58;5.28;;;;;;;-5.12;66.75;101723.89;1711997;83;21334;-82
2022/01/25 06:11:33;;;;;;;7.60;5.33;;;;;;;-5.10;66.61;101723.94;1712090;83;20991;-79
2022/01/25 06:14:01;;;;;;;8.83;6.45;;;;;;;-5.11;66.54;101723.08;1712406;82;21824;-83
2022/01/25 06:16:29;;;;;;;9.25;5.37;;;;;;;-5.16;66.71;101718.67;1711610;83;21019;-80
2022/01/25 06:18:56;;;;;;;8.85;5.08;;;;;;;-5.21;66.89;101727.10;1712283;82;20892;-82
2022/01/25 06:21:23;;;;;;;9.33;5.80;;;;;;;-5.23;66.88;101731.73;1712525;82;20897;-82
2022/01/25 06:23:50;;;;;;;8.83;5.90;;;;;;;-5.24;66.99;101728.32;1712054;83;20975;-83
2022/01/25 06:26:18;;;;;;;7.90;5.17;;;;;;;-5.24;66.99;101718.09;1712397;82;21134;-83
2022/01/25 06:28:45;;;;;;;10.98;5.90;;;;;;;-5.22;67.12;101718.14;1712193;83;20889;-83
2022/01/25 06:31:12;;;;;;;9.68;6.30;;;;;;;-5.20;67.10;101721.59;1712280;82;21393;-80
2022/01/25 06:33:42;;;;;;;12.03;5.85;;;;;;;-5.18;67.02;101717.78;1712122;82;20971;-82
2022/01/25 06:36:08;;;;;;;10.58;6.40;;;;;;;-5.12;66.95;101715.36;1712606;82;21326;-80
2022/01/25 06:38:35;;;;;;;8.68;4.72;;;;;;;-5.09;66.73;101717.97;1712230;83;21084;-81
2022/01/25 06:41:02;;;;;;;8.70;6.40;;;;;;;-5.11;66.51;101720.52;1712240;83;21430;-82
2022/01/25 06:43:29;;;;;;;9.40;5.80;;;;;;;-5.15;66.62;101716.16;1712273;83;20916;-81
2022/01/25 06:46:00;;;;;;;9.25;5.62;;;;;;;-5.14;66.64;101720.44;1711864;82;20900;-81
2022/01/25 06:48:24;;;;;;;7.75;5.58;;;;;;;-5.09;66.55;101721.42;1711904;83;20857;-80
2022/01/25 06:50:51;;;;;;;9.18;6.00;;;;;;;-5.08;66.51;101722.27;1712082;82;21769;-81
2022/01/25 06:53:18;;;;;;;11.97;6.60;;;;;;;-5.04;66.61;101727.48;1709385;82;20892;-80
2022/01/25 06:55:45;;;;;;;12.53;6.60;;;;;;;-5.00;66.51;101720.34;1708843;84;20861;-81
2022/01/25 06:58:12;;;;;;;13.85;5.60;;;;;;;-4.96;66.59;101722.95;1709234;84;20960;-81
2022/01/25 07:00:39;;;;;;;9.95;5.70;;;;;;;-4.91;66.64;101718.78;1709038;82;20897;-82
2022/01/25 07:03:06;;;;;;;11.33;6.12;;;;;;;-4.86;66.67;101721.90;1709266;82;21096;-82
2022/01/25 07:05:34;;;;;;;11.60;5.83;;;;;;;-4.80;66.59;101722.03;1708889;82;21370;-82
2022/01/25 07:08:03;;;;;;;10.25;5.80;;;;;;;-4.79;66.54;101721.19;1708868;84;20967;-81
2022/01/25 07:10:30;;;;;;;10.48;5.78;;;;;;;-4.80;66.53;101726.30;1708847;82;20944;-81
2022/01/25 07:12:57;;;;;;;9.90;5.03;;;;;;;-4.85;66.65;101724.03;1709154;84;21517;-80
2022/01/25 07:15:26;;;;;;;10.50;5.65;;;;;;;-4.91;66.60;101720.06;1709048;82;20896;-82
2022/01/25 07:17:53;;;;;;;9.60;4.90;;;;;;;-4.98;66.91;101719.06;1709535;82;20936;-81
2022/01/25 07:20:22;;;;;;;9.40;5.20;;;;;;;-4.97;67.15;101718.25;1709631;82;20995;-80
2022/01/25 07:22:48;;;;;;;12.55;6.30;;;;;;;-4.96;67.26;101718.69;1709365;82;21010;-80
2022/01/25 07:25:15;;;;;;;10.75;5.62;;;;;;;-4.91;67.37;101723.90;1709028;84;21386;-81
2022/01/25 07:27:42;;;;;;;12.07;7.40;;;;;;;-4.85;67.26;101726.17;1709239;84;21802;-79
2022/01/25 07:30:09;;;;;;;10.93;5.87;;;;;;;-4.83;67.25;101716.84;1709002;84;21031;-80
2022/01/25 07:32:37;;;;;;;11.22;5.87;;;;;;;-4.79;67.00;101724.17;1709468;84;20880;-81
2022/01/25 07:35:04;;;;;;;11.45;5.90;;;;;;;-4.82;67.09;101719.86;1709031;84;20881;-83
2022/01/25 07:37:32;;;;;;;11.83;5.95;;;;;;;-4.75;67.25;101730.23;1709149;84;21038;-82
2022/01/25 07:39:59;;;;;;;13.20;5.72;;;;;;;-4.71;67.12;101729.43;1709663;84;21154;-86
2022/01/25 07:42:28;;;;;;;15.15;6.75;;;;;;;-4.67;66.97;101724.44;1711762;82;20900;-90
2022/01/25 07:44:56;;;;;;;12.45;6.33;;;;;;;-4.63;66.87;101727.48;1701866;81;21241;-84
2022/01/25 07:47:23;;;;;;;10.25;6.17;;;;;;;-4.60;66.69;101728.84;1655079;87;20964;-89
2022/01/25 07:49:54;;;;;;;13.18;5.72;;;;;;;-4.56;66.61;101723.34;1638092;84;20949;-87
2022/01/25 07:52:21;;;;;;;13.40;8.18;;;;;;;-4.50;66.61;101715.80;1654680;84;21106;-85
2022/01/25 07:54:48;;;;;;;17.90;7.90;;;;;;;-4.44;66.31;101720.19;1654155;87;20996;-87
2022/01/25 07:57:16;;;;;;;14.87;6.17;;;;;;;-4.45;66.15;101714.18;1654396;87;21028;-85
2022/01/25 07:59:48;;;;;;;12.15;5.40;;;;;;;-4.44;65.92;101723.60;1653802;87;21406;-86
2022/01/25 08:02:18;;;;;;;17.75;6.62;;;;;;;-4.48;65.98;101717.97;1652706;86;21012;-86
2022/01/25 08:04:45;;;;;;;12.35;6.78;;;;;;;-4.53;65.93;101722.58;1634149;87;21447;-87
2022/01/25 08:07:14;;;;;;;10.75;6.35;;;;;;;-4.59;66.28;101725.86;1652716;87;20901;-87
2022/01/25 08:09:41;;;;;;;13.00;6.97;;;;;;;-4.59;66.43;101725.44;1652618;87;20948;-87
2022/01/25 08:12:10;;;;;;;16.48;7.45;;;;;;;-4.54;66.50;101724.24;1652676;87;20961;-85
2022/01/25 08:14:42;;;;;;;18.17;7.10;;;;;;;-4.49;66.44;101723.05;1652500;87;20996;-86
2022/01/25 08:17:09;;;;;;;13.68;7.50;;;;;;;-4.45;66.34;101727.41;1652505;85;21170;-86
2022/01/25 08:19:36;;;;;;;18.25;8.55;;;;;;;-4.41;66.27;101735.59;1652765;87;21080;-85
2022/01/25 08:22:03;;;;;;;9.48;6.20;;;;;;;-4.34;66.26;101736.58;1652329;87;21447;-85
2022/01/25 08:24:30;;;;;;;14.15;6.75;;;;;;;-4.31;66.15;101723.43;1652061;87;20893;-85
2022/01/25 08:26:57;;;;;;;11.38;5.55;;;;;;;-4.24;65.90;101723.12;1652317;87;21504;-85
2022/01/25 08:29:24;;;;;;;11.43;5.80;;;;;;;-4.21;65.62;101713.78;1652630;87;21124;-86
2022/01/25 08:31:51;;;;;;;9.18;6.10;;;;;;;-4.15;65.53;101716.03;1651888;87;20960;-78
2022/01/25 08:34:18;;;;;;;9.35;5.70;;;;;;;-4.06;65.38;101714.91;1652186;87;20991;-80
2022/01/25 08:36:45;;;;;;;14.47;7.58;;;;;;;-4.01;65.08;101709.44;1651907;87;21001;-79
2022/01/25 08:39:12;;;;;;;11.43;6.53;;;;;;;-3.95;64.88;101706.99;1651897;87;20917;-79
2022/01/25 08:41:39;;;;;;;11.75;6.85;;;;;;;-3.89;64.46;101711.34;1652154;87;21068;-79
2022/01/25 08:44:06;;;;;;;11.53;6.25;;;;;;;-3.92;63.88;101710.02;1652415;87;20956;-78
2022/01/25 08:46:33;;;;;;;11.28;6.17;;;;;;;-3.96;63.78;101707.42;1650665;86;22403;-81
2022/01/25 08:49:01;;;;;;;10.05;6.20;;;;;;;-3.96;63.64;101712.54;1649922;87;20906;-79
2022/01/25 08:51:28;;;;;;;11.28;6.33;;;;;;;-3.94;63.63;101708.70;1649545;87;21046;-78
2022/01/25 08:53:59;;;;;;;11.38;5.80;;;;;;;-3.93;63.64;101710.45;1649871;87;21837;-81
2022/01/25 08:56:25;;;;;;;10.55;6.42;;;;;;;-3.92;63.62;101705.75;1649514;86;21434;-79
2022/01/25 08:58:52;;;;;;;12.58;6.15;;;;;;;-3.89;63.80;101708.38;1649786;87;20897;-81
2022/01/25 09:01:19;;;;;;;12.37;6.75;;;;;;;-3.81;63.76;101708.50;1649632;87;20965;-80
2022/01/25 09:03:46;;;;;;;14.07;6.60;;;;;;;-3.79;63.75;101701.27;1649289;87;21020;-80
2022/01/25 09:06:13;;;;;;;11.05;6.85;;;;;;;-3.78;63.59;101699.56;1649139;87;21232;-80
2022/01/25 09:08:40;;;;;;;11.55;7.05;;;;;;;-3.81;63.64;101706.79;1649602;87;20909;-78
2022/01/25 09:11:08;;;;;;;13.60;6.10;;;;;;;-3.83;63.48;101701.20;1649117;87;21016;-79
2022/01/25 09:13:38;;;;;;;15.35;6.92;;;;;;;-3.81;63.54;101703.38;1649324;87;21589;-79
2022/01/25 09:16:07;;;;;;;13.40;6.45;;;;;;;-3.81;63.61;101700.81;1649525;86;21465;-78
2022/01/25 09:18:34;;;;;;;19.67;8.45;;;;;;;-3.79;63.76;101701.70;1649616;87;21227;-78
2022/01/25 09:21:01;;;;;;;11.97;6.90;;;;;;;-3.80;63.79;101707.64;1649318;86;20885;-80
2022/01/25 09:23:29;;;;;;;14.45;7.55;;;;;;;-3.80;63.81;101705.97;1649265;87;20944;-78
2022/01/25 09:25:56;;;;;;;11.00;6.45;;;;;;;-3.78;63.71;101706.86;1649494;86;21453;-79
2022/01/25 09:28:23;;;;;;;13.35;7.67;;;;;;;-3.77;63.64;101704.73;1649476;87;20924;-78
2022/01/25 09:30:50;;;;;;;11.53;6.78;;;;;;;-3.79;63.61;101696.15;1649409;86;21542;-80
2022/01/25 09:33:17;;;;;;;18.20;6.58;;;;;;;-3.79;63.50;101696.15;1649563;86;20988;-81
2022/01/25 09:35:44;;;;;;;14.33;8.40;;;;;;;-3.83;63.25;101692.23;1649426;87;20925;-80
2022/01/25 09:38:11;;;;;;;12.90;5.72;;;;;;;-3.92;63.47;101698.48;1649611;87;21050;-80
2022/01/25 09:40:39;;;;;;;10.72;6.70;;;;;;;-3.95;63.60;101689.05;1649749;87;20958;-78
2022/01/25 09:43:07;;;;;;;10.25;6.65;;;;;;;-3.96;63.64;101698.84;1649352;87;21158;-79
2022/01/25 09:45:34;;;;;;;12.47;6.97;;;;;;;-4.04;63.62;101691.05;1649465;85;21446;-80
2022/01/25 09:48:02;;;;;;;13.22;6.90;;;;;;;-4.10;63.66;101693.91;1649776;86;21402;-79
2022/01/25 09:50:29;;;;;;;12.63;7.20;;;;;;;-4.14;63.80;101689.14;1649896;87;21023;-77
2022/01/25 09:52:55;;;;;;;11.68;7.17;;;;;;;-4.14;64.05;101690.42;1650456;86;21541;-78
2022/01/25 09:55:26;;;;;;;8.93;6.12;;;;;;;-4.13;64.24;101685.77;1631104;87;21151;-79
2022/01/25 09:57:53;;;;;;;10.35;6.25;;;;;;;-4.14;64.05;101678.90;1649899;86;20909;-80
2022/01/25 10:00:22;;;;;;;8.73;6.53;;;;;;;-4.29;64.33;101684.63;1649678;86;21499;-80
2022/01/25 10:03:14;;;;;;;7.85;6.20;;;;;;;-4.33;64.64;101679.44;1649747;86;21008;-79
2022/01/25 10:05:38;;;;;;;12.05;7.17;;;;;;;-4.35;64.77;101672.14;1649666;86;21040;-78
2022/01/25 10:08:11;;;;;;;10.20;6.80;;;;;;;-4.39;64.98;101664.80;1649826;87;21562;-79
2022/01/25 10:10:43;;;;;;;9.00;6.33;;;;;;;-4.24;64.99;101670.63;1649549;87;21518;-80
2022/01/25 10:13:20;;;;;;;9.13;5.92;;;;;;;-4.25;64.63;101667.61;1648949;86;21451;-79
2022/01/25 10:15:51;;;;;;;9.53;6.45;;;;;;;-4.35;64.46;101661.47;1648807;86;21012;-79
2022/01/25 10:18:18;;;;;;;9.85;6.17;;;;;;;-4.41;64.73;101663.91;1649810;86;21008;-78
2022/01/25 10:20:48;;;;;;;9.93;6.50;;;;;;;-4.41;64.71;101663.91;1649463;87;21554;-79
2022/01/25 10:23:30;;;;;;;11.48;6.87;;;;;;;-4.39;64.72;101674.63;1649794;86;20996;-81
2022/01/25 10:25:54;;;;;;;12.50;7.40;;;;;;;-4.31;64.58;101671.33;1649355;86;20920;-83
2022/01/25 10:28:27;;;;;;;11.30;6.87;;;;;;;-4.24;64.39;101662.95;1649616;86;20921;-83
2022/01/25 10:31:05;;;;;;;12.07;6.62;;;;;;;-4.18;63.71;101665.59;1650125;87;21423;-84
2022/01/25 10:33:50;;;;;;;12.40;6.90;;;;;;;-4.15;63.26;101659.69;1649868;86;21460;-85
2022/01/25 10:36:13;;;;;;;13.35;6.45;;;;;;;-4.17;63.06;101659.65;1649748;86;20905;-84
2022/01/25 10:38:41;;;;;;;10.15;6.40;;;;;;;-4.16;63.02;101656.23;1649842;87;21470;-81
2022/01/25 10:41:12;;;;;;;9.98;6.45;;;;;;;-4.13;62.82;101652.47;1649708;86;21010;-80
2022/01/25 10:43:40;;;;;;;10.05;6.53;;;;;;;-4.08;63.03;101648.27;1649559;87;20968;-79
2022/01/25 10:46:29;;;;;;;12.47;6.87;;;;;;;-3.98;62.82;101646.32;1650315;85;21521;-78
2022/01/25 10:49:00;;;;;;;8.33;5.25;;;;;;;-3.98;62.55;101645.04;1653776;86;20968;-80
2022/01/25 10:51:32;;;;;;;12.05;6.17;;;;;;;-3.96;62.39;101642.09;1654081;86;20928;-80
2022/01/25 10:54:04;;;;;;;8.70;5.53;;;;;;;-4.02;62.10;101639.42;1653890;86;20988;-80
2022/01/25 10:56:38;;;;;;;9.65;6.65;;;;;;;-4.14;62.39;101640.48;1651477;86;20905;-78
2022/01/25 10:59:06;;;;;;;7.45;5.67;;;;;;;-4.18;62.64;101638.70;1653909;86;21826;-78
2022/01/25 11:01:37;;;;;;;9.88;5.97;;;;;;;-4.20;62.56;101637.41;1653981;86;20909;-79
2022/01/25 11:04:14;;;;;;;9.43;5.92;;;;;;;-4.20;62.77;101635.28;1653918;86;21043;-80
2022/01/25 11:06:41;;;;;;;10.40;7.15;;;;;;;-4.20;62.87;101633.58;1654266;86;20973;-82
2022/01/25 11:09:10;;;;;;;9.40;6.80;;;;;;;-4.19;62.96;101627.59;1654392;86;20956;-79
2022/01/25 11:11:44;;;;;;;9.23;6.60;;;;;;;-4.15;63.00;101620.84;1654150;86;21145;-80
2022/01/25 11:16:54;;;;;;;;;;;;;;;-4.00;62.85;101624.08;1656344;86;20988;-80
2022/01/25 11:19:23;;;;;;;9.28;6.35;;;;;;;-3.96;62.54;101616.47;1653741;86;20134;-82
2022/01/25 11:21:51;;;;;;;10.05;5.35;;;;;;;-3.92;62.26;101622.91;1654456;86;21410;-80
2022/01/25 11:24:19;;;;;;;10.10;7.65;;;;;;;-3.91;62.23;101619.49;1654061;86;21528;-79
2022/01/25 11:26:49;;;;;;;11.45;6.87;;;;;;;-3.84;62.21;101625.18;1654888;86;21004;-80
2022/01/25 11:29:16;;;;;;;11.73;7.55;;;;;;;-3.80;62.02;101621.41;1654868;85;20976;-80
2022/01/25 11:31:47;;;;;;;12.20;7.33;;;;;;;-3.77;61.81;101617.59;1654360;86;20916;-80
2022/01/25 11:34:14;;;;;;;11.95;7.53;;;;;;;-3.72;61.85;101615.09;1653904;86;20940;-78
2022/01/25 11:36:53;;;;;;;11.25;6.75;;;;;;;-3.71;61.71;101607.87;1654156;86;21531;-80
2022/01/25 11:39:25;;;;;;;9.78;7.30;;;;;;;-3.69;61.47;101604.91;1654432;86;21363;-80
2022/01/25 11:42:04;;;;;;;11.15;6.78;;;;;;;-3.67;61.38;101610.03;1653772;86;20901;-75
2022/01/25 11:44:31;;;;;;;10.82;6.45;;;;;;;-3.65;61.11;101604.09;1653640;86;21386;-76
2022/01/25 11:47:12;;;;;;;11.60;6.60;;;;;;;-3.60;60.98;101605.03;1653628;86;21015;-75
2022/01/25 11:50:04;;;;;;;12.23;5.97;;;;;;;-3.58;60.91;101599.91;1653617;86;21174;-75
2022/01/25 11:52:31;;;;;;;11.97;5.97;;;;;;;-3.51;60.85;101598.29;1642321;85;20968;-75
2022/01/25 11:55:30;;;;;;;10.48;5.78;;;;;;;-3.42;60.52;101594.59;1653781;86;20984;-76
2022/01/25 11:58:03;;;;;;;15.08;6.92;;;;;;;-3.40;60.41;101592.88;1607443;88;20972;-75
2022/01/25 12:00:51;;;;;;;12.90;6.97;;;;;;;-3.39;60.25;101590.78;1608000;89;20924;-75
2022/01/25 12:03:47;;;;;;;8.15;5.78;;;;;;;-3.39;60.29;101590.78;1591707;89;22122;-76
2022/01/25 12:06:27;;;;;;;7.95;5.62;;;;;;;-3.39;59.76;101595.48;1616830;88;20876;-77
2022/01/25 12:11:58;;;;;;;12.40;6.03;;;;;;;-3.57;60.08;101585.84;1616389;88;20947;-77
2022/01/25 12:14:51;;;;;;;11.00;7.03;;;;;;;-3.54;60.17;101585.02;1615878;88;21474;-77
2022/01/25 12:17:23;;;;;;;10.95;6.75;;;;;;;-3.51;60.02;101585.08;1616725;88;21134;-75
2022/01/25 12:19:57;;;;;;;13.58;7.70;;;;;;;-3.45;60.15;101581.28;1616491;88;20939;-74
2022/01/25 12:22:37;;;;;;;10.43;6.72;;;;;;;-3.37;60.26;101578.84;1616944;88;21472;-79
2022/01/25 12:25:27;;;;;;;13.08;6.47;;;;;;;-3.25;59.89;101571.70;1616567;88;20928;-77
2022/01/25 12:27:59;;;;;;;14.95;7.42;;;;;;;-3.24;59.59;101578.15;1616214;88;20998;-78
2022/01/25 12:30:34;;;;;;;11.93;7.80;;;;;;;-3.35;59.55;101575.45;1616608;88;21173;-78
2022/01/25 12:33:08;;;;;;;12.35;7.37;;;;;;;-3.33;59.70;101572.91;1625238;87;20976;-78
2022/01/25 12:35:48;;;;;;;9.93;5.97;;;;;;;-3.29;59.48;101569.55;1653762;86;21023;-76
2022/01/25 12:38:19;;;;;;;9.68;6.17;;;;;;;-3.29;59.58;101568.66;1636897;86;20920;-78
2022/01/25 12:41:10;;;;;;;12.65;7.28;;;;;;;-3.35;59.20;101569.03;1637031;87;20977;-78
2022/01/25 12:43:53;;;;;;;16.00;8.65;;;;;;;-3.42;59.51;101564.68;1652957;85;21125;-77
2022/01/25 12:46:29;;;;;;;14.55;7.40;;;;;;;-3.34;59.67;101564.77;1653041;85;21465;-79
2022/01/25 12:49:00;;;;;;;11.85;7.12;;;;;;;-3.28;59.45;101566.55;1656039;85;20967;-78
2022/01/25 12:51:30;;;;;;;10.65;7.42;;;;;;;-3.29;58.90;101564.42;1656253;86;20920;-76
2022/01/25 12:53:59;;;;;;;15.63;7.55;;;;;;;-3.39;58.95;101558.30;1656139;85;20963;-77
2022/01/25 12:56:37;;;;;;;10.10;7.05;;;;;;;-3.42;59.27;101563.40;1687378;85;21163;-76
2022/01/25 12:59:08;;;;;;;12.00;7.28;;;;;;;-3.41;59.42;101565.10;1686706;85;20937;-76
2022/01/25 13:01:37;;;;;;;11.30;7.45;;;;;;;-3.39;59.09;101564.70;1686297;84;21059;-77
2022/01/25 13:04:05;;;;;;;10.18;6.58;;;;;;;-3.40;59.14;101562.11;1687386;84;20890;-80